sensor_id;sensor_type;location;lat;lon;timestamp;P1;durP1;ratioP1;P2;durP2;ratioP2
39782;SDS011;25462;51.164;17.100;2022-10-17T00:04:39;3.70;;;3.20;;
39782;SDS011;25462;51.164;17.100;2022-10-17T00:09:46;9.70;;;3.70;;
39782;SDS011;25462;51.164;17.100;2022-10-17T00:14:55;10.50;;;2.30;;
39782;SDS011;25462;51.164;17.100;2022-10-17T00:19:58;5.90;;;2.60;;
39782;SDS011;25462;51.164;17.100;2022-10-17T00:25:02;10.10;;;4.10;;
39782;SDS011;25462;51.164;17.100;2022-10-17T00:30:10;4.80;;;3.00;;
39782;SDS011;25462;51.164;17.100;2022-10-17T00:35:21;7.70;;;2.50;;
39782;SDS011;25462;51.164;17.100;2022-10-17T00:40:25;8.20;;;1.70;;
39782;SDS011;25462;51.164;17.100;2022-10-17T00:45:31;6.30;;;1.70;;
39782;SDS011;25462;51.164;17.100;2022-10-17T00:50:38;6.90;;;2.80;;
39782;SDS011;25462;51.164;17.100;2022-10-17T00:55:51;3.20;;;1.60;;
39782;SDS011;25462;51.164;17.100;2022-10-17T01:00:56;2.00;;;1.80;;
39782;SDS011;25462;51.164;17.100;2022-10-17T01:06:02;1.70;;;1.20;;
39782;SDS011;25462;51.164;17.100;2022-10-17T01:11:16;2.30;;;2.10;;
39782;SDS011;25462;51.164;17.100;2022-10-17T01:16:56;5.90;;;1.70;;
39782;SDS011;25462;51.164;17.100;2022-10-17T01:22:28;3.40;;;1.80;;
39782;SDS011;25462;51.164;17.100;2022-10-17T01:44:00;14.60;;;4.30;;
39782;SDS011;25462;51.164;17.100;2022-10-17T01:49:09;6.30;;;1.40;;
39782;SDS011;25462;51.164;17.100;2022-10-17T01:59:22;2.30;;;1.90;;
39782;SDS011;25462;51.164;17.100;2022-10-17T02:04:33;2.50;;;1.90;;
39782;SDS011;25462;51.164;17.100;2022-10-17T02:09:39;2.50;;;2.00;;
39782;SDS011;25462;51.164;17.100;2022-10-17T02:20:16;11.20;;;3.20;;
39782;SDS011;25462;51.164;17.100;2022-10-17T02:30:54;8.10;;;2.80;;
39782;SDS011;25462;51.164;17.100;2022-10-17T02:36:04;5.60;;;3.70;;
39782;SDS011;25462;51.164;17.100;2022-10-17T02:41:14;3.30;;;1.80;;
39782;SDS011;25462;51.164;17.100;2022-10-17T02:46:20;4.00;;;3.50;;
39782;SDS011;25462;51.164;17.100;2022-10-17T02:56:29;5.60;;;2.20;;
39782;SDS011;25462;51.164;17.100;2022-10-17T03:01:38;6.90;;;2.80;;
39782;SDS011;25462;51.164;17.100;2022-10-17T03:06:43;5.70;;;2.40;;
39782;SDS011;25462;51.164;17.100;2022-10-17T03:11:49;2.10;;;1.80;;
39782;SDS011;25462;51.164;17.100;2022-10-17T03:16:57;3.90;;;2.50;;
39782;SDS011;25462;51.164;17.100;2022-10-17T03:22:01;4.50;;;3.10;;
39782;SDS011;25462;51.164;17.100;2022-10-17T03:27:07;6.70;;;3.50;;
39782;SDS011;25462;51.164;17.100;2022-10-17T03:32:11;3.10;;;2.80;;
39782;SDS011;25462;51.164;17.100;2022-10-17T03:37:14;7.20;;;3.10;;
39782;SDS011;25462;51.164;17.100;2022-10-17T03:42:19;2.00;;;1.70;;
39782;SDS011;25462;51.164;17.100;2022-10-17T03:47:23;3.90;;;1.20;;
39782;SDS011;25462;51.164;17.100;2022-10-17T03:52:27;8.00;;;3.70;;
39782;SDS011;25462;51.164;17.100;2022-10-17T03:57:30;3.30;;;2.80;;
39782;SDS011;25462;51.164;17.100;2022-10-17T04:02:35;2.30;;;1.30;;
39782;SDS011;25462;51.164;17.100;2022-10-17T04:07:39;3.50;;;3.20;;
39782;SDS011;25462;51.164;17.100;2022-10-17T04:12:44;4.10;;;3.20;;
39782;SDS011;25462;51.164;17.100;2022-10-17T04:17:50;2.20;;;2.00;;
39782;SDS011;25462;51.164;17.100;2022-10-17T04:22:56;2.20;;;1.10;;
39782;SDS011;25462;51.164;17.100;2022-10-17T04:28:00;8.20;;;2.70;;
39782;SDS011;25462;51.164;17.100;2022-10-17T04:33:05;2.70;;;2.30;;
39782;SDS011;25462;51.164;17.100;2022-10-17T04:38:09;4.10;;;3.20;;
39782;SDS011;25462;51.164;17.100;2022-10-17T04:43:12;2.90;;;2.00;;
39782;SDS011;25462;51.164;17.100;2022-10-17T04:48:19;7.10;;;3.20;;
39782;SDS011;25462;51.164;17.100;2022-10-17T04:53:23;2.90;;;2.20;;
39782;SDS011;25462;51.164;17.100;2022-10-17T04:58:27;4.50;;;2.70;;
39782;SDS011;25462;51.164;17.100;2022-10-17T05:03:32;3.00;;;2.70;;
39782;SDS011;25462;51.164;17.100;2022-10-17T05:08:37;2.10;;;1.90;;
39782;SDS011;25462;51.164;17.100;2022-10-17T05:13:41;2.90;;;2.70;;
39782;SDS011;25462;51.164;17.100;2022-10-17T05:18:49;5.50;;;3.30;;
39782;SDS011;25462;51.164;17.100;2022-10-17T05:23:56;9.50;;;4.10;;
39782;SDS011;25462;51.164;17.100;2022-10-17T05:29:00;2.30;;;2.10;;
39782;SDS011;25462;51.164;17.100;2022-10-17T05:34:05;3.00;;;2.50;;
39782;SDS011;25462;51.164;17.100;2022-10-17T05:39:16;4.60;;;1.90;;
39782;SDS011;25462;51.164;17.100;2022-10-17T05:44:22;2.20;;;2.00;;
39782;SDS011;25462;51.164;17.100;2022-10-17T05:49:32;3.30;;;3.10;;
39782;SDS011;25462;51.164;17.100;2022-10-17T05:54:51;4.40;;;3.30;;
39782;SDS011;25462;51.164;17.100;2022-10-17T05:59:58;5.10;;;2.30;;
39782;SDS011;25462;51.164;17.100;2022-10-17T06:05:17;3.30;;;2.90;;
39782;SDS011;25462;51.164;17.100;2022-10-17T06:10:22;6.10;;;3.10;;
39782;SDS011;25462;51.164;17.100;2022-10-17T06:15:25;28.50;;;2.40;;
39782;SDS011;25462;51.164;17.100;2022-10-17T06:20:40;7.70;;;3.50;;
39782;SDS011;25462;51.164;17.100;2022-10-17T06:25:49;3.20;;;2.90;;
39782;SDS011;25462;51.164;17.100;2022-10-17T06:31:07;3.30;;;2.40;;
39782;SDS011;25462;51.164;17.100;2022-10-17T06:36:17;6.90;;;3.70;;
39782;SDS011;25462;51.164;17.100;2022-10-17T06:41:22;3.20;;;2.90;;
39782;SDS011;25462;51.164;17.100;2022-10-17T06:46:29;3.20;;;3.00;;
39782;SDS011;25462;51.164;17.100;2022-10-17T06:51:38;4.20;;;3.40;;
39782;SDS011;25462;51.164;17.100;2022-10-17T06:56:45;3.20;;;2.90;;
39782;SDS011;25462;51.164;17.100;2022-10-17T07:02:11;3.50;;;3.20;;
39782;SDS011;25462;51.164;17.100;2022-10-17T07:07:17;4.20;;;3.90;;
39782;SDS011;25462;51.164;17.100;2022-10-17T07:12:21;3.70;;;3.30;;
39782;SDS011;25462;51.164;17.100;2022-10-17T07:17:26;8.60;;;4.10;;
39782;SDS011;25462;51.164;17.100;2022-10-17T07:22:30;4.70;;;3.60;;
39782;SDS011;25462;51.164;17.100;2022-10-17T07:27:36;5.60;;;3.50;;
39782;SDS011;25462;51.164;17.100;2022-10-17T07:32:40;7.30;;;3.40;;
39782;SDS011;25462;51.164;17.100;2022-10-17T07:37:45;2.50;;;2.30;;
39782;SDS011;25462;51.164;17.100;2022-10-17T07:42:51;2.60;;;2.10;;
39782;SDS011;25462;51.164;17.100;2022-10-17T07:47:56;2.80;;;2.70;;
39782;SDS011;25462;51.164;17.100;2022-10-17T07:53:00;3.10;;;2.80;;
39782;SDS011;25462;51.164;17.100;2022-10-17T07:58:03;6.30;;;3.80;;
39782;SDS011;25462;51.164;17.100;2022-10-17T08:03:06;3.20;;;2.80;;
39782;SDS011;25462;51.164;17.100;2022-10-17T08:08:15;2.40;;;1.20;;
39782;SDS011;25462;51.164;17.100;2022-10-17T08:13:19;4.20;;;3.80;;
39782;SDS011;25462;51.164;17.100;2022-10-17T08:18:23;6.70;;;2.10;;
39782;SDS011;25462;51.164;17.100;2022-10-17T08:23:27;3.00;;;1.90;;
39782;SDS011;25462;51.164;17.100;2022-10-17T08:28:33;2.10;;;1.90;;
39782;SDS011;25462;51.164;17.100;2022-10-17T08:33:39;4.80;;;3.00;;
39782;SDS011;25462;51.164;17.100;2022-10-17T08:38:43;5.10;;;3.00;;
39782;SDS011;25462;51.164;17.100;2022-10-17T08:49:39;3.20;;;2.90;;
39782;SDS011;25462;51.164;17.100;2022-10-17T08:54:55;2.60;;;2.00;;
39782;SDS011;25462;51.164;17.100;2022-10-17T08:59:58;2.00;;;1.80;;
39782;SDS011;25462;51.164;17.100;2022-10-17T09:10:18;1.70;;;1.50;;
39782;SDS011;25462;51.164;17.100;2022-10-17T09:21:02;6.90;;;3.00;;
39782;SDS011;25462;51.164;17.100;2022-10-17T09:26:12;3.70;;;2.20;;
39782;SDS011;25462;51.164;17.100;2022-10-17T09:32:03;2.30;;;2.20;;
39782;SDS011;25462;51.164;17.100;2022-10-17T09:36:51;2.40;;;1.70;;
39782;SDS011;25462;51.164;17.100;2022-10-17T09:41:57;2.00;;;1.50;;
39782;SDS011;25462;51.164;17.100;2022-10-17T09:52:47;3.20;;;3.00;;
39782;SDS011;25462;51.164;17.100;2022-10-17T09:57:56;2.80;;;2.10;;
39782;SDS011;25462;51.164;17.100;2022-10-17T10:03:18;2.90;;;2.70;;
39782;SDS011;25462;51.164;17.100;2022-10-17T10:08:31;2.80;;;2.30;;
39782;SDS011;25462;51.164;17.100;2022-10-17T10:13:37;2.70;;;2.50;;
39782;SDS011;25462;51.164;17.100;2022-10-17T10:18:40;3.40;;;1.90;;
39782;SDS011;25462;51.164;17.100;2022-10-17T10:23:45;3.20;;;2.90;;
39782;SDS011;25462;51.164;17.100;2022-10-17T10:29:51;2.60;;;2.10;;
39782;SDS011;25462;51.164;17.100;2022-10-17T10:34:33;3.50;;;1.80;;
39782;SDS011;25462;51.164;17.100;2022-10-17T10:45:18;1.90;;;1.50;;
39782;SDS011;25462;51.164;17.100;2022-10-17T10:50:49;1.50;;;1.40;;
39782;SDS011;25462;51.164;17.100;2022-10-17T11:06:39;2.20;;;2.00;;
39782;SDS011;25462;51.164;17.100;2022-10-17T11:11:53;1.70;;;1.60;;
39782;SDS011;25462;51.164;17.100;2022-10-17T11:22:36;15.80;;;1.80;;
39782;SDS011;25462;51.164;17.100;2022-10-17T11:27:41;3.30;;;1.40;;
39782;SDS011;25462;51.164;17.100;2022-10-17T11:32:59;0.70;;;0.60;;
39782;SDS011;25462;51.164;17.100;2022-10-17T11:48:54;3.70;;;1.40;;
39782;SDS011;25462;51.164;17.100;2022-10-17T11:59:18;1.20;;;1.10;;
39782;SDS011;25462;51.164;17.100;2022-10-17T12:20:30;1.70;;;1.60;;
39782;SDS011;25462;51.164;17.100;2022-10-17T12:25:34;0.50;;;0.50;;
39782;SDS011;25462;51.164;17.100;2022-10-17T13:02:44;1.90;;;1.80;;
39782;SDS011;25462;51.164;17.100;2022-10-17T13:07:54;4.30;;;3.30;;
39782;SDS011;25462;51.164;17.100;2022-10-17T13:18:14;1.30;;;1.30;;
39782;SDS011;25462;51.164;17.100;2022-10-17T13:23:22;1.00;;;0.90;;
39782;SDS011;25462;51.164;17.100;2022-10-17T13:28:28;2.30;;;1.50;;
39782;SDS011;25462;51.164;17.100;2022-10-17T13:33:41;2.20;;;1.30;;
39782;SDS011;25462;51.164;17.100;2022-10-17T13:38:45;3.20;;;1.70;;
39782;SDS011;25462;51.164;17.100;2022-10-17T13:43:58;2.90;;;2.00;;
39782;SDS011;25462;51.164;17.100;2022-10-17T13:49:17;3.40;;;2.80;;
39782;SDS011;25462;51.164;17.100;2022-10-17T13:59:38;1.50;;;1.40;;
39782;SDS011;25462;51.164;17.100;2022-10-17T14:04:43;1.70;;;1.60;;
39782;SDS011;25462;51.164;17.100;2022-10-17T14:10:41;1.50;;;1.20;;
39782;SDS011;25462;51.164;17.100;2022-10-17T14:15:41;1.80;;;1.70;;
39782;SDS011;25462;51.164;17.100;2022-10-17T14:20:48;2.40;;;1.80;;
39782;SDS011;25462;51.164;17.100;2022-10-17T14:26:17;2.70;;;2.60;;
39782;SDS011;25462;51.164;17.100;2022-10-17T14:31:27;1.70;;;1.60;;
39782;SDS011;25462;51.164;17.100;2022-10-17T14:41:42;2.10;;;1.70;;
39782;SDS011;25462;51.164;17.100;2022-10-17T14:46:49;3.50;;;1.80;;
39782;SDS011;25462;51.164;17.100;2022-10-17T15:02:44;2.40;;;2.10;;
39782;SDS011;25462;51.164;17.100;2022-10-17T15:07:49;2.40;;;1.60;;
39782;SDS011;25462;51.164;17.100;2022-10-17T15:12:55;2.50;;;1.40;;
39782;SDS011;25462;51.164;17.100;2022-10-17T15:18:22;2.40;;;2.00;;
39782;SDS011;25462;51.164;17.100;2022-10-17T15:23:29;1.80;;;1.50;;
39782;SDS011;25462;51.164;17.100;2022-10-17T15:28:34;2.60;;;1.40;;
39782;SDS011;25462;51.164;17.100;2022-10-17T15:33:39;2.10;;;1.40;;
39782;SDS011;25462;51.164;17.100;2022-10-17T15:38:46;2.80;;;2.50;;
39782;SDS011;25462;51.164;17.100;2022-10-17T15:43:53;1.20;;;1.10;;
39782;SDS011;25462;51.164;17.100;2022-10-17T15:49:03;4.10;;;1.80;;
39782;SDS011;25462;51.164;17.100;2022-10-17T15:54:09;4.10;;;1.40;;
39782;SDS011;25462;51.164;17.100;2022-10-17T15:59:21;1.10;;;1.10;;
39782;SDS011;25462;51.164;17.100;2022-10-17T16:04:29;0.90;;;0.90;;
39782;SDS011;25462;51.164;17.100;2022-10-17T16:09:43;1.30;;;1.00;;
39782;SDS011;25462;51.164;17.100;2022-10-17T16:14:49;2.80;;;1.50;;
39782;SDS011;25462;51.164;17.100;2022-10-17T16:19:53;1.20;;;1.10;;
39782;SDS011;25462;51.164;17.100;2022-10-17T16:25:22;1.30;;;0.60;;
39782;SDS011;25462;51.164;17.100;2022-10-17T16:30:42;0.60;;;0.60;;
39782;SDS011;25462;51.164;17.100;2022-10-17T16:36:02;1.20;;;0.90;;
39782;SDS011;25462;51.164;17.100;2022-10-17T16:41:17;1.10;;;1.10;;
39782;SDS011;25462;51.164;17.100;2022-10-17T16:46:38;0.70;;;0.50;;
39782;SDS011;25462;51.164;17.100;2022-10-17T16:51:57;1.90;;;0.80;;
39782;SDS011;25462;51.164;17.100;2022-10-17T16:57:03;0.70;;;0.70;;
39782;SDS011;25462;51.164;17.100;2022-10-17T17:02:08;0.60;;;0.60;;
39782;SDS011;25462;51.164;17.100;2022-10-17T17:07:38;0.60;;;0.60;;
39782;SDS011;25462;51.164;17.100;2022-10-17T17:13:11;0.70;;;0.60;;
39782;SDS011;25462;51.164;17.100;2022-10-17T17:18:20;3.50;;;1.00;;
39782;SDS011;25462;51.164;17.100;2022-10-17T17:23:52;0.60;;;0.60;;
39782;SDS011;25462;51.164;17.100;2022-10-17T17:29:10;0.90;;;0.80;;
39782;SDS011;25462;51.164;17.100;2022-10-17T17:34:25;0.50;;;0.50;;
39782;SDS011;25462;51.164;17.100;2022-10-17T17:39:29;2.20;;;0.70;;
39782;SDS011;25462;51.164;17.100;2022-10-17T17:44:38;1.90;;;0.70;;
39782;SDS011;25462;51.164;17.100;2022-10-17T17:49:41;0.40;;;0.40;;
39782;SDS011;25462;51.164;17.100;2022-10-17T17:54:45;1.90;;;0.90;;
39782;SDS011;25462;51.164;17.100;2022-10-17T17:59:55;1.20;;;1.20;;
39782;SDS011;25462;51.164;17.100;2022-10-17T18:04:58;2.50;;;2.00;;
39782;SDS011;25462;51.164;17.100;2022-10-17T18:10:09;3.20;;;0.80;;
39782;SDS011;25462;51.164;17.100;2022-10-17T18:15:18;0.80;;;0.80;;
39782;SDS011;25462;51.164;17.100;2022-10-17T18:20:25;1.00;;;0.80;;
39782;SDS011;25462;51.164;17.100;2022-10-17T18:25:35;0.70;;;0.70;;
39782;SDS011;25462;51.164;17.100;2022-10-17T18:30:41;0.90;;;0.90;;
39782;SDS011;25462;51.164;17.100;2022-10-17T18:35:46;7.10;;;0.60;;
39782;SDS011;25462;51.164;17.100;2022-10-17T18:41:00;0.30;;;0.30;;
39782;SDS011;25462;51.164;17.100;2022-10-17T18:46:06;1.00;;;0.40;;
39782;SDS011;25462;51.164;17.100;2022-10-17T18:51:23;0.20;;;0.20;;
39782;SDS011;25462;51.164;17.100;2022-10-17T18:56:29;2.70;;;1.30;;
39782;SDS011;25462;51.164;17.100;2022-10-17T19:01:35;0.30;;;0.30;;
39782;SDS011;25462;51.164;17.100;2022-10-17T19:06:39;0.70;;;0.70;;
39782;SDS011;25462;51.164;17.100;2022-10-17T19:11:45;1.60;;;1.50;;
39782;SDS011;25462;51.164;17.100;2022-10-17T19:16:49;0.40;;;0.30;;
39782;SDS011;25462;51.164;17.100;2022-10-17T19:21:53;0.90;;;0.90;;
39782;SDS011;25462;51.164;17.100;2022-10-17T19:27:00;1.10;;;0.80;;
39782;SDS011;25462;51.164;17.100;2022-10-17T19:32:07;0.40;;;0.40;;
39782;SDS011;25462;51.164;17.100;2022-10-17T19:37:20;3.60;;;1.00;;
39782;SDS011;25462;51.164;17.100;2022-10-17T19:42:24;2.60;;;0.90;;
39782;SDS011;25462;51.164;17.100;2022-10-17T19:47:27;0.50;;;0.50;;
39782;SDS011;25462;51.164;17.100;2022-10-17T19:52:45;1.30;;;0.50;;
39782;SDS011;25462;51.164;17.100;2022-10-17T19:57:49;1.30;;;0.80;;
39782;SDS011;25462;51.164;17.100;2022-10-17T20:02:55;1.50;;;1.20;;
39782;SDS011;25462;51.164;17.100;2022-10-17T20:07:58;0.50;;;0.50;;
39782;SDS011;25462;51.164;17.100;2022-10-17T20:13:08;1.20;;;0.90;;
39782;SDS011;25462;51.164;17.100;2022-10-17T20:18:11;0.80;;;0.70;;
39782;SDS011;25462;51.164;17.100;2022-10-17T20:23:15;4.30;;;0.90;;
39782;SDS011;25462;51.164;17.100;2022-10-17T20:28:19;0.70;;;0.70;;
39782;SDS011;25462;51.164;17.100;2022-10-17T20:33:23;0.40;;;0.40;;
39782;SDS011;25462;51.164;17.100;2022-10-17T20:38:38;0.50;;;0.50;;
39782;SDS011;25462;51.164;17.100;2022-10-17T20:43:42;0.60;;;0.50;;
39782;SDS011;25462;51.164;17.100;2022-10-17T20:48:51;1.50;;;1.30;;
39782;SDS011;25462;51.164;17.100;2022-10-17T20:53:58;0.70;;;0.20;;
39782;SDS011;25462;51.164;17.100;2022-10-17T20:59:07;1.10;;;0.80;;
39782;SDS011;25462;51.164;17.100;2022-10-17T21:04:16;2.00;;;0.60;;
39782;SDS011;25462;51.164;17.100;2022-10-17T21:09:40;1.20;;;0.70;;
39782;SDS011;25462;51.164;17.100;2022-10-17T21:14:45;0.10;;;0.10;;
39782;SDS011;25462;51.164;17.100;2022-10-17T21:19:52;0.30;;;0.30;;
39782;SDS011;25462;51.164;17.100;2022-10-17T21:25:02;2.90;;;1.00;;
39782;SDS011;25462;51.164;17.100;2022-10-17T21:30:08;0.90;;;0.90;;
39782;SDS011;25462;51.164;17.100;2022-10-17T21:35:30;2.20;;;0.80;;
39782;SDS011;25462;51.164;17.100;2022-10-17T21:40:38;1.30;;;1.20;;
39782;SDS011;25462;51.164;17.100;2022-10-17T21:46:17;0.60;;;0.60;;
39782;SDS011;25462;51.164;17.100;2022-10-17T21:51:31;1.10;;;0.70;;
39782;SDS011;25462;51.164;17.100;2022-10-17T21:56:52;1.90;;;1.10;;
39782;SDS011;25462;51.164;17.100;2022-10-17T22:01:59;0.10;;;0.10;;
39782;SDS011;25462;51.164;17.100;2022-10-17T22:07:10;1.50;;;0.50;;
39782;SDS011;25462;51.164;17.100;2022-10-17T22:12:13;1.50;;;1.20;;
39782;SDS011;25462;51.164;17.100;2022-10-17T22:17:17;0.70;;;0.70;;
39782;SDS011;25462;51.164;17.100;2022-10-17T22:22:20;2.20;;;1.40;;
39782;SDS011;25462;51.164;17.100;2022-10-17T22:27:24;4.70;;;1.10;;
39782;SDS011;25462;51.164;17.100;2022-10-17T22:32:27;2.60;;;0.60;;
39782;SDS011;25462;51.164;17.100;2022-10-17T22:37:30;3.30;;;0.50;;
39782;SDS011;25462;51.164;17.100;2022-10-17T22:42:34;0.40;;;0.40;;
39782;SDS011;25462;51.164;17.100;2022-10-17T22:47:38;0.20;;;0.20;;
39782;SDS011;25462;51.164;17.100;2022-10-17T22:52:42;0.70;;;0.40;;
39782;SDS011;25462;51.164;17.100;2022-10-17T22:57:45;1.30;;;1.00;;
39782;SDS011;25462;51.164;17.100;2022-10-17T23:02:51;2.00;;;0.80;;
39782;SDS011;25462;51.164;17.100;2022-10-17T23:07:56;3.20;;;1.30;;
39782;SDS011;25462;51.164;17.100;2022-10-17T23:12:59;1.20;;;1.10;;
39782;SDS011;25462;51.164;17.100;2022-10-17T23:18:02;0.60;;;0.60;;
39782;SDS011;25462;51.164;17.100;2022-10-17T23:23:09;1.90;;;1.70;;
39782;SDS011;25462;51.164;17.100;2022-10-17T23:28:13;3.40;;;1.50;;
39782;SDS011;25462;51.164;17.100;2022-10-17T23:33:23;0.60;;;0.60;;
39782;SDS011;25462;51.164;17.100;2022-10-17T23:38:26;0.60;;;0.60;;
39782;SDS011;25462;51.164;17.100;2022-10-17T23:43:30;0.60;;;0.60;;
39782;SDS011;25462;51.164;17.100;2022-10-17T23:48:33;1.30;;;1.20;;
39782;SDS011;25462;51.164;17.100;2022-10-17T23:53:37;0.80;;;0.80;;
39782;SDS011;25462;51.164;17.100;2022-10-17T23:58:41;2.60;;;1.20;;
